Terminal Aerodrome Forecast
Issued by NWS

Home | Current Version | Previous Version | Text Only | Print | Product List | Glossary On
Versions: 1 2 3 4 5 6 7 8 9 10 11 12 13 14 15 16 17 18 19 20 21 22
684
FTUS43 KDLH 170537
TAFBRD
TAF
KBRD 170537Z 1706/1806 26007KT P6SM OVC016
     FM171400 28013G21KT P6SM BKN020
     FM171600 28013G22KT P6SM SCT050
     FM180100 25003KT P6SM SKC=

USA.gov is the U.S. government's official web portal to all federal, state and local government web resources and services.